Aérodrome :
LOGIN :

S'inscrire | Disclaimer

   EN    FR    IT 

 










Légende :    VFR   VFR Marginal   IFR   IFR Intensif   IFR Très Intensif
Visi : 
Plafond : 
>= 8 km
>= 3000ft
5 à 8 km
1000 à 3000 ft
1500m à 5 km
500 à 1000 ft
800 à 1500m
200 à 500 ft
< 800m
< 200 ft
Symboles :   Orages  Brouillard  Fortes neiges  Fortes précipitations  Vent > 20 kt
SIGMETs :   Divers  Orages  Givrage  Turbulence  Onde Orograph.  Cendres Volcan.






- Altitude de l'aérodrome : 362 ft
- Code IATA : WAW


EPWA - Warsaw Okecie

DERNIER METAR :
  • 210030Z 16007KT CAVOK M01/M02 Q1016 NOSIG

METARs EXPIRÉS :
  • 210000Z 15007KT CAVOK M01/M02 Q1017 NOSIG
  • 202330Z 16006KT CAVOK M01/M02 Q1017 NOSIG
  • 202300Z 16007KT CAVOK M01/M02 Q1018 NOSIG
  • 202230Z 16006KT CAVOK M01/M02 Q1018 NOSIG
  • 202200Z 17006KT CAVOK M02/M03 Q1018 NOSIG

TAF TAF EPWA
Valide du 21 à 00h jusqu'au 22 à 00h UTC


202330Z 2100/2124 17007KT CAVOK
BECMG 2106/2108 RA BKN004 OVC012
TEMPO 2107/2112 22015G25KT 3000 RASN
BECMG 2110/2113 30012KT NSW BKN030
TEMPO 2112/2115 32018G31KT 3000 RA BKN012
TEMPO 2115/2121 SHRA BKN025CB
PROB30 2122/2124 BKN014



MET'MAP, la Météo Aéronautique d'un coup d'oeil ! - Copyright ORBIFLY Décembre 2007 - Disclaimer

ORBIFLY MET'MAP TEAM :

Programmation & Développement : Alexandra Zaïnal
Sur une idée originale de : Baudouin d'Aumeries
Assistance à la programmation : Marc-Olivier Méhu
Soutien technique & logistique : Manuel Goepfert

Contact : metmap@orbifly.com




SOURCES & CREDITS :

   NOAA